sensor_id;sensor_type;location;lat;lon;timestamp;P1;durP1;ratioP1;P2;durP2;ratioP2
65045;SDS011;54657;52.022;5.534;2023-04-08T00:00:14;20.20;;;13.02;;
65045;SDS011;54657;52.022;5.534;2023-04-08T00:02:40;19.80;;;12.68;;
65045;SDS011;54657;52.022;5.534;2023-04-08T00:05:07;21.63;;;12.57;;
65045;SDS011;54657;52.022;5.534;2023-04-08T00:07:33;19.63;;;12.18;;
65045;SDS011;54657;52.022;5.534;2023-04-08T00:09:58;20.60;;;13.48;;
65045;SDS011;54657;52.022;5.534;2023-04-08T00:12:24;21.98;;;14.38;;
65045;SDS011;54657;52.022;5.534;2023-04-08T00:14:50;21.38;;;13.40;;
65045;SDS011;54657;52.022;5.534;2023-04-08T00:17:15;22.17;;;13.85;;
65045;SDS011;54657;52.022;5.534;2023-04-08T00:19:41;119.15;;;14.40;;
65045;SDS011;54657;52.022;5.534;2023-04-08T00:22:07;84.78;;;13.93;;
65045;SDS011;54657;52.022;5.534;2023-04-08T00:24:33;98.50;;;14.25;;
65045;SDS011;54657;52.022;5.534;2023-04-08T00:26:58;29.85;;;12.00;;
65045;SDS011;54657;52.022;5.534;2023-04-08T00:29:24;49.22;;;13.20;;
65045;SDS011;54657;52.022;5.534;2023-04-08T00:31:50;116.38;;;14.43;;
65045;SDS011;54657;52.022;5.534;2023-04-08T00:34:16;96.45;;;14.68;;
65045;SDS011;54657;52.022;5.534;2023-04-08T00:36:42;171.40;;;15.85;;
65045;SDS011;54657;52.022;5.534;2023-04-08T00:39:07;132.85;;;15.25;;
65045;SDS011;54657;52.022;5.534;2023-04-08T00:41:33;113.80;;;13.95;;
65045;SDS011;54657;52.022;5.534;2023-04-08T00:44:00;22.52;;;12.20;;
65045;SDS011;54657;52.022;5.534;2023-04-08T00:46:25;175.43;;;15.18;;
65045;SDS011;54657;52.022;5.534;2023-04-08T00:48:52;165.35;;;13.55;;
65045;SDS011;54657;52.022;5.534;2023-04-08T00:51:18;21.85;;;11.25;;
65045;SDS011;54657;52.022;5.534;2023-04-08T00:53:45;107.57;;;12.75;;
65045;SDS011;54657;52.022;5.534;2023-04-08T00:56:10;69.22;;;10.88;;
65045;SDS011;54657;52.022;5.534;2023-04-08T00:58:36;60.40;;;11.82;;
65045;SDS011;54657;52.022;5.534;2023-04-08T01:01:05;53.50;;;11.43;;
65045;SDS011;54657;52.022;5.534;2023-04-08T01:06:34;50.53;;;9.30;;
65045;SDS011;54657;52.022;5.534;2023-04-08T01:09:07;79.50;;;10.88;;
65045;SDS011;54657;52.022;5.534;2023-04-08T01:11:34;42.65;;;8.63;;
65045;SDS011;54657;52.022;5.534;2023-04-08T01:14:05;22.63;;;9.80;;
65045;SDS011;54657;52.022;5.534;2023-04-08T01:16:34;36.35;;;9.00;;
65045;SDS011;54657;52.022;5.534;2023-04-08T01:19:02;41.88;;;9.50;;
65045;SDS011;54657;52.022;5.534;2023-04-08T01:21:31;29.38;;;9.43;;
65045;SDS011;54657;52.022;5.534;2023-04-08T01:24:00;60.75;;;9.77;;
65045;SDS011;54657;52.022;5.534;2023-04-08T01:26:30;46.78;;;9.02;;
65045;SDS011;54657;52.022;5.534;2023-04-08T01:28:57;42.10;;;9.30;;
65045;SDS011;54657;52.022;5.534;2023-04-08T01:31:25;52.45;;;8.43;;
65045;SDS011;54657;52.022;5.534;2023-04-08T01:33:52;20.80;;;6.95;;
65045;SDS011;54657;52.022;5.534;2023-04-08T01:36:19;13.05;;;8.15;;
65045;SDS011;54657;52.022;5.534;2023-04-08T01:38:47;20.25;;;8.35;;
65045;SDS011;54657;52.022;5.534;2023-04-08T01:41:22;13.82;;;7.50;;
65045;SDS011;54657;52.022;5.534;2023-04-08T01:43:51;26.50;;;7.57;;
65045;SDS011;54657;52.022;5.534;2023-04-08T01:46:17;11.80;;;8.57;;
65045;SDS011;54657;52.022;5.534;2023-04-08T01:48:44;21.50;;;7.95;;
65045;SDS011;54657;52.022;5.534;2023-04-08T01:51:10;12.82;;;8.30;;
65045;SDS011;54657;52.022;5.534;2023-04-08T01:53:36;21.50;;;7.93;;
65045;SDS011;54657;52.022;5.534;2023-04-08T01:56:04;27.85;;;8.02;;
65045;SDS011;54657;52.022;5.534;2023-04-08T01:58:37;23.67;;;7.40;;
65045;SDS011;54657;52.022;5.534;2023-04-08T02:01:08;43.92;;;8.02;;
65045;SDS011;54657;52.022;5.534;2023-04-08T02:03:36;30.80;;;7.05;;
65045;SDS011;54657;52.022;5.534;2023-04-08T02:06:02;18.23;;;7.00;;
65045;SDS011;54657;52.022;5.534;2023-04-08T02:08:29;16.73;;;7.07;;
65045;SDS011;54657;52.022;5.534;2023-04-08T02:10:54;23.52;;;6.80;;
65045;SDS011;54657;52.022;5.534;2023-04-08T02:13:20;57.42;;;7.43;;
65045;SDS011;54657;52.022;5.534;2023-04-08T02:15:47;14.00;;;6.32;;
65045;SDS011;54657;52.022;5.534;2023-04-08T02:18:21;33.50;;;6.88;;
65045;SDS011;54657;52.022;5.534;2023-04-08T02:21:13;19.75;;;6.15;;
65045;SDS011;54657;52.022;5.534;2023-04-08T02:23:39;34.13;;;5.95;;
65045;SDS011;54657;52.022;5.534;2023-04-08T02:26:07;30.85;;;5.80;;
65045;SDS011;54657;52.022;5.534;2023-04-08T02:28:38;25.67;;;6.40;;
65045;SDS011;54657;52.022;5.534;2023-04-08T02:31:08;22.63;;;5.35;;
65045;SDS011;54657;52.022;5.534;2023-04-08T02:36:05;16.60;;;5.15;;
65045;SDS011;54657;52.022;5.534;2023-04-08T02:38:31;12.70;;;5.20;;
65045;SDS011;54657;52.022;5.534;2023-04-08T02:40:57;35.92;;;6.30;;
65045;SDS011;54657;52.022;5.534;2023-04-08T02:43:23;38.60;;;5.30;;
65045;SDS011;54657;52.022;5.534;2023-04-08T02:45:59;32.17;;;5.43;;
65045;SDS011;54657;52.022;5.534;2023-04-08T02:48:27;20.88;;;5.65;;
65045;SDS011;54657;52.022;5.534;2023-04-08T02:50:53;26.85;;;5.75;;
65045;SDS011;54657;52.022;5.534;2023-04-08T02:53:19;39.08;;;5.75;;
65045;SDS011;54657;52.022;5.534;2023-04-08T02:55:44;23.63;;;5.63;;
65045;SDS011;54657;52.022;5.534;2023-04-08T02:58:10;22.35;;;5.45;;
65045;SDS011;54657;52.022;5.534;2023-04-08T03:00:35;16.08;;;6.03;;
65045;SDS011;54657;52.022;5.534;2023-04-08T03:03:03;21.50;;;5.70;;
65045;SDS011;54657;52.022;5.534;2023-04-08T03:05:30;27.38;;;6.00;;
65045;SDS011;54657;52.022;5.534;2023-04-08T03:07:56;24.10;;;5.47;;
65045;SDS011;54657;52.022;5.534;2023-04-08T03:10:21;13.40;;;5.72;;
65045;SDS011;54657;52.022;5.534;2023-04-08T03:12:47;43.50;;;6.05;;
65045;SDS011;54657;52.022;5.534;2023-04-08T03:15:13;14.63;;;5.57;;
65045;SDS011;54657;52.022;5.534;2023-04-08T03:17:38;36.90;;;6.30;;
65045;SDS011;54657;52.022;5.534;2023-04-08T03:20:04;36.30;;;5.75;;
65045;SDS011;54657;52.022;5.534;2023-04-08T03:22:31;14.40;;;5.50;;
65045;SDS011;54657;52.022;5.534;2023-04-08T03:25:00;28.70;;;6.35;;
65045;SDS011;54657;52.022;5.534;2023-04-08T03:27:26;23.92;;;5.95;;
65045;SDS011;54657;52.022;5.534;2023-04-08T03:29:52;34.28;;;5.93;;
65045;SDS011;54657;52.022;5.534;2023-04-08T03:32:18;29.50;;;5.85;;
65045;SDS011;54657;52.022;5.534;2023-04-08T03:34:44;47.22;;;6.97;;
65045;SDS011;54657;52.022;5.534;2023-04-08T03:37:10;56.20;;;6.47;;
65045;SDS011;54657;52.022;5.534;2023-04-08T03:39:35;41.47;;;6.93;;
65045;SDS011;54657;52.022;5.534;2023-04-08T03:42:01;23.65;;;6.32;;
65045;SDS011;54657;52.022;5.534;2023-04-08T03:44:27;11.68;;;5.70;;
65045;SDS011;54657;52.022;5.534;2023-04-08T03:46:53;9.32;;;5.88;;
65045;SDS011;54657;52.022;5.534;2023-04-08T03:49:18;16.98;;;6.82;;
65045;SDS011;54657;52.022;5.534;2023-04-08T03:51:44;8.95;;;6.35;;
65045;SDS011;54657;52.022;5.534;2023-04-08T03:54:10;23.92;;;6.70;;
65045;SDS011;54657;52.022;5.534;2023-04-08T03:56:35;29.45;;;6.80;;
65045;SDS011;54657;52.022;5.534;2023-04-08T03:59:01;7.70;;;6.30;;
65045;SDS011;54657;52.022;5.534;2023-04-08T04:01:26;8.80;;;6.47;;
65045;SDS011;54657;52.022;5.534;2023-04-08T04:03:52;15.63;;;6.40;;
65045;SDS011;54657;52.022;5.534;2023-04-08T04:06:18;22.60;;;6.75;;
65045;SDS011;54657;52.022;5.534;2023-04-08T04:08:44;34.97;;;6.95;;
65045;SDS011;54657;52.022;5.534;2023-04-08T04:11:10;20.33;;;6.10;;
65045;SDS011;54657;52.022;5.534;2023-04-08T04:13:35;33.20;;;6.43;;
65045;SDS011;54657;52.022;5.534;2023-04-08T04:16:01;33.38;;;7.53;;
65045;SDS011;54657;52.022;5.534;2023-04-08T04:18:27;15.82;;;7.50;;
65045;SDS011;54657;52.022;5.534;2023-04-08T04:20:52;18.05;;;6.57;;
65045;SDS011;54657;52.022;5.534;2023-04-08T04:23:23;31.90;;;7.68;;
65045;SDS011;54657;52.022;5.534;2023-04-08T04:25:49;17.20;;;7.13;;
65045;SDS011;54657;52.022;5.534;2023-04-08T04:28:15;11.15;;;7.30;;
65045;SDS011;54657;52.022;5.534;2023-04-08T04:30:41;16.02;;;7.18;;
65045;SDS011;54657;52.022;5.534;2023-04-08T04:33:07;9.90;;;7.40;;
65045;SDS011;54657;52.022;5.534;2023-04-08T04:35:32;17.70;;;7.35;;
65045;SDS011;54657;52.022;5.534;2023-04-08T04:37:58;12.10;;;6.70;;
65045;SDS011;54657;52.022;5.534;2023-04-08T04:40:23;16.95;;;6.55;;
65045;SDS011;54657;52.022;5.534;2023-04-08T04:42:49;12.13;;;6.97;;
65045;SDS011;54657;52.022;5.534;2023-04-08T04:45:15;15.15;;;7.00;;
65045;SDS011;54657;52.022;5.534;2023-04-08T04:47:43;8.23;;;6.65;;
65045;SDS011;54657;52.022;5.534;2023-04-08T04:50:09;19.08;;;7.40;;
65045;SDS011;54657;52.022;5.534;2023-04-08T04:52:35;18.83;;;6.32;;
65045;SDS011;54657;52.022;5.534;2023-04-08T04:55:01;7.80;;;7.00;;
65045;SDS011;54657;52.022;5.534;2023-04-08T04:57:27;16.13;;;6.40;;
65045;SDS011;54657;52.022;5.534;2023-04-08T04:59:53;15.25;;;6.75;;
65045;SDS011;54657;52.022;5.534;2023-04-08T05:02:23;16.15;;;6.65;;
65045;SDS011;54657;52.022;5.534;2023-04-08T05:04:48;22.10;;;7.45;;
65045;SDS011;54657;52.022;5.534;2023-04-08T05:07:17;10.43;;;6.95;;
65045;SDS011;54657;52.022;5.534;2023-04-08T05:09:45;14.25;;;6.47;;
65045;SDS011;54657;52.022;5.534;2023-04-08T05:12:11;12.50;;;6.38;;
65045;SDS011;54657;52.022;5.534;2023-04-08T05:14:36;17.45;;;6.63;;
65045;SDS011;54657;52.022;5.534;2023-04-08T05:17:02;14.25;;;6.47;;
65045;SDS011;54657;52.022;5.534;2023-04-08T05:19:29;14.73;;;6.97;;
65045;SDS011;54657;52.022;5.534;2023-04-08T05:21:55;15.18;;;6.70;;
65045;SDS011;54657;52.022;5.534;2023-04-08T05:24:21;9.95;;;7.38;;
65045;SDS011;54657;52.022;5.534;2023-04-08T05:26:47;11.00;;;6.07;;
65045;SDS011;54657;52.022;5.534;2023-04-08T05:29:16;10.20;;;6.40;;
65045;SDS011;54657;52.022;5.534;2023-04-08T05:31:42;27.60;;;6.38;;
65045;SDS011;54657;52.022;5.534;2023-04-08T05:34:08;11.88;;;6.55;;
65045;SDS011;54657;52.022;5.534;2023-04-08T05:36:35;17.70;;;6.55;;
65045;SDS011;54657;52.022;5.534;2023-04-08T05:39:04;16.60;;;6.53;;
65045;SDS011;54657;52.022;5.534;2023-04-08T05:41:30;12.55;;;6.13;;
65045;SDS011;54657;52.022;5.534;2023-04-08T05:43:55;15.90;;;6.25;;
65045;SDS011;54657;52.022;5.534;2023-04-08T05:46:21;11.00;;;5.95;;
65045;SDS011;54657;52.022;5.534;2023-04-08T05:48:47;11.38;;;6.10;;
65045;SDS011;54657;52.022;5.534;2023-04-08T05:51:13;17.35;;;6.75;;
65045;SDS011;54657;52.022;5.534;2023-04-08T05:53:39;27.98;;;6.70;;
65045;SDS011;54657;52.022;5.534;2023-04-08T05:56:05;14.70;;;6.20;;
65045;SDS011;54657;52.022;5.534;2023-04-08T05:58:31;22.10;;;6.40;;
65045;SDS011;54657;52.022;5.534;2023-04-08T06:00:56;19.80;;;6.80;;
65045;SDS011;54657;52.022;5.534;2023-04-08T06:03:22;8.93;;;6.22;;
65045;SDS011;54657;52.022;5.534;2023-04-08T06:05:47;12.43;;;6.72;;
65045;SDS011;54657;52.022;5.534;2023-04-08T06:08:13;19.77;;;8.60;;
65045;SDS011;54657;52.022;5.534;2023-04-08T06:10:38;12.43;;;9.00;;
65045;SDS011;54657;52.022;5.534;2023-04-08T06:13:04;10.90;;;8.82;;
65045;SDS011;54657;52.022;5.534;2023-04-08T06:15:32;18.05;;;13.15;;
65045;SDS011;54657;52.022;5.534;2023-04-08T06:18:03;17.98;;;11.35;;
65045;SDS011;54657;52.022;5.534;2023-04-08T06:20:29;12.02;;;9.35;;
65045;SDS011;54657;52.022;5.534;2023-04-08T06:22:54;13.95;;;9.98;;
65045;SDS011;54657;52.022;5.534;2023-04-08T06:25:20;15.63;;;11.15;;
65045;SDS011;54657;52.022;5.534;2023-04-08T06:27:46;15.23;;;9.93;;
65045;SDS011;54657;52.022;5.534;2023-04-08T06:30:12;12.77;;;10.05;;
65045;SDS011;54657;52.022;5.534;2023-04-08T06:32:38;16.73;;;11.90;;
65045;SDS011;54657;52.022;5.534;2023-04-08T06:35:03;16.30;;;12.40;;
65045;SDS011;54657;52.022;5.534;2023-04-08T06:37:29;15.02;;;11.02;;
65045;SDS011;54657;52.022;5.534;2023-04-08T06:39:55;16.05;;;11.40;;
65045;SDS011;54657;52.022;5.534;2023-04-08T06:42:20;14.60;;;11.52;;
65045;SDS011;54657;52.022;5.534;2023-04-08T06:44:46;15.10;;;11.77;;
65045;SDS011;54657;52.022;5.534;2023-04-08T06:47:11;13.57;;;11.10;;
65045;SDS011;54657;52.022;5.534;2023-04-08T06:49:37;17.65;;;13.15;;
65045;SDS011;54657;52.022;5.534;2023-04-08T06:52:02;16.02;;;11.98;;
65045;SDS011;54657;52.022;5.534;2023-04-08T06:54:30;16.77;;;13.02;;
65045;SDS011;54657;52.022;5.534;2023-04-08T06:56:56;19.38;;;13.30;;
65045;SDS011;54657;52.022;5.534;2023-04-08T06:59:21;17.80;;;13.25;;
65045;SDS011;54657;52.022;5.534;2023-04-08T07:01:47;22.10;;;14.63;;
65045;SDS011;54657;52.022;5.534;2023-04-08T07:04:13;21.42;;;15.55;;
65045;SDS011;54657;52.022;5.534;2023-04-08T07:06:38;24.10;;;16.17;;
65045;SDS011;54657;52.022;5.534;2023-04-08T07:09:04;22.52;;;15.23;;
65045;SDS011;54657;52.022;5.534;2023-04-08T07:11:29;23.15;;;15.20;;
65045;SDS011;54657;52.022;5.534;2023-04-08T07:13:55;20.75;;;14.88;;
65045;SDS011;54657;52.022;5.534;2023-04-08T07:16:21;20.75;;;14.85;;
65045;SDS011;54657;52.022;5.534;2023-04-08T07:18:46;23.38;;;15.30;;
65045;SDS011;54657;52.022;5.534;2023-04-08T07:21:12;22.50;;;15.23;;
65045;SDS011;54657;52.022;5.534;2023-04-08T07:23:37;19.45;;;15.15;;
65045;SDS011;54657;52.022;5.534;2023-04-08T07:26:03;17.48;;;13.23;;
65045;SDS011;54657;52.022;5.534;2023-04-08T07:28:29;17.00;;;11.65;;
65045;SDS011;54657;52.022;5.534;2023-04-08T07:30:55;16.10;;;12.75;;
65045;SDS011;54657;52.022;5.534;2023-04-08T07:33:21;14.65;;;11.60;;
65045;SDS011;54657;52.022;5.534;2023-04-08T07:35:47;13.25;;;11.82;;
65045;SDS011;54657;52.022;5.534;2023-04-08T07:38:13;13.60;;;11.10;;
65045;SDS011;54657;52.022;5.534;2023-04-08T07:40:39;12.20;;;10.70;;
65045;SDS011;54657;52.022;5.534;2023-04-08T07:43:07;14.20;;;11.48;;
65045;SDS011;54657;52.022;5.534;2023-04-08T07:45:38;12.77;;;10.90;;
65045;SDS011;54657;52.022;5.534;2023-04-08T07:48:07;14.60;;;11.35;;
65045;SDS011;54657;52.022;5.534;2023-04-08T07:50:36;12.20;;;10.90;;
65045;SDS011;54657;52.022;5.534;2023-04-08T07:53:02;13.25;;;10.57;;
65045;SDS011;54657;52.022;5.534;2023-04-08T07:55:31;15.02;;;12.02;;
65045;SDS011;54657;52.022;5.534;2023-04-08T07:58:00;15.38;;;12.52;;
65045;SDS011;54657;52.022;5.534;2023-04-08T08:00:26;14.13;;;11.27;;
65045;SDS011;54657;52.022;5.534;2023-04-08T08:03:10;14.10;;;10.85;;
65045;SDS011;54657;52.022;5.534;2023-04-08T08:05:36;14.18;;;10.15;;
65045;SDS011;54657;52.022;5.534;2023-04-08T08:08:02;11.30;;;9.40;;
65045;SDS011;54657;52.022;5.534;2023-04-08T08:10:28;11.52;;;10.25;;
65045;SDS011;54657;52.022;5.534;2023-04-08T08:12:53;14.40;;;11.02;;
65045;SDS011;54657;52.022;5.534;2023-04-08T08:15:22;11.07;;;9.52;;
65045;SDS011;54657;52.022;5.534;2023-04-08T08:17:47;11.98;;;9.85;;
65045;SDS011;54657;52.022;5.534;2023-04-08T08:20:13;11.43;;;8.88;;
65045;SDS011;54657;52.022;5.534;2023-04-08T08:22:39;11.77;;;9.40;;
65045;SDS011;54657;52.022;5.534;2023-04-08T08:25:05;11.20;;;9.88;;
65045;SDS011;54657;52.022;5.534;2023-04-08T08:27:31;12.23;;;9.30;;
65045;SDS011;54657;52.022;5.534;2023-04-08T08:29:58;9.82;;;8.70;;
65045;SDS011;54657;52.022;5.534;2023-04-08T08:32:24;10.35;;;9.10;;
65045;SDS011;54657;52.022;5.534;2023-04-08T08:34:49;10.32;;;9.02;;
65045;SDS011;54657;52.022;5.534;2023-04-08T08:37:15;11.40;;;8.93;;
65045;SDS011;54657;52.022;5.534;2023-04-08T08:39:40;11.68;;;9.13;;
65045;SDS011;54657;52.022;5.534;2023-04-08T08:42:06;10.18;;;9.05;;
65045;SDS011;54657;52.022;5.534;2023-04-08T08:44:42;9.85;;;8.57;;
65045;SDS011;54657;52.022;5.534;2023-04-08T08:47:07;11.05;;;8.88;;
65045;SDS011;54657;52.022;5.534;2023-04-08T08:49:33;12.38;;;8.90;;
65045;SDS011;54657;52.022;5.534;2023-04-08T08:51:58;11.48;;;9.32;;
65045;SDS011;54657;52.022;5.534;2023-04-08T08:54:24;11.40;;;8.60;;
65045;SDS011;54657;52.022;5.534;2023-04-08T08:56:51;10.85;;;8.80;;
65045;SDS011;54657;52.022;5.534;2023-04-08T08:59:17;9.75;;;8.15;;
65045;SDS011;54657;52.022;5.534;2023-04-08T09:01:42;9.90;;;8.45;;
65045;SDS011;54657;52.022;5.534;2023-04-08T09:06:42;11.82;;;9.30;;
65045;SDS011;54657;52.022;5.534;2023-04-08T09:09:08;12.48;;;9.82;;
65045;SDS011;54657;52.022;5.534;2023-04-08T09:11:38;14.82;;;10.50;;
65045;SDS011;54657;52.022;5.534;2023-04-08T09:14:31;12.27;;;10.27;;
65045;SDS011;54657;52.022;5.534;2023-04-08T09:20:38;11.18;;;9.25;;
65045;SDS011;54657;52.022;5.534;2023-04-08T09:23:16;13.13;;;9.60;;
65045;SDS011;54657;52.022;5.534;2023-04-08T09:25:42;13.02;;;9.95;;
65045;SDS011;54657;52.022;5.534;2023-04-08T09:28:17;12.65;;;9.52;;
65045;SDS011;54657;52.022;5.534;2023-04-08T09:30:46;11.23;;;9.63;;
65045;SDS011;54657;52.022;5.534;2023-04-08T09:33:12;10.93;;;9.30;;
65045;SDS011;54657;52.022;5.534;2023-04-08T09:35:37;10.18;;;9.07;;
65045;SDS011;54657;52.022;5.534;2023-04-08T09:38:03;11.48;;;10.13;;
65045;SDS011;54657;52.022;5.534;2023-04-08T09:40:30;12.75;;;10.13;;
65045;SDS011;54657;52.022;5.534;2023-04-08T09:43:04;12.52;;;10.02;;
65045;SDS011;54657;52.022;5.534;2023-04-08T09:45:33;12.63;;;10.80;;
65045;SDS011;54657;52.022;5.534;2023-04-08T09:48:09;14.85;;;11.32;;
65045;SDS011;54657;52.022;5.534;2023-04-08T09:50:46;14.60;;;10.38;;
65045;SDS011;54657;52.022;5.534;2023-04-08T09:53:33;12.52;;;9.38;;
65045;SDS011;54657;52.022;5.534;2023-04-08T09:56:01;11.50;;;9.18;;
65045;SDS011;54657;52.022;5.534;2023-04-08T09:58:33;11.55;;;9.77;;
65045;SDS011;54657;52.022;5.534;2023-04-08T10:01:06;12.63;;;9.52;;
65045;SDS011;54657;52.022;5.534;2023-04-08T10:03:47;11.75;;;9.20;;
65045;SDS011;54657;52.022;5.534;2023-04-08T10:06:17;10.90;;;8.40;;
65045;SDS011;54657;52.022;5.534;2023-04-08T10:08:45;10.80;;;9.05;;
65045;SDS011;54657;52.022;5.534;2023-04-08T10:11:13;10.32;;;8.93;;
65045;SDS011;54657;52.022;5.534;2023-04-08T10:13:41;11.10;;;9.13;;
65045;SDS011;54657;52.022;5.534;2023-04-08T10:24:12;9.27;;;8.10;;
65045;SDS011;54657;52.022;5.534;2023-04-08T10:26:38;10.02;;;8.68;;
65045;SDS011;54657;52.022;5.534;2023-04-08T10:31:43;10.88;;;8.63;;
65045;SDS011;54657;52.022;5.534;2023-04-08T10:34:16;9.75;;;8.27;;
65045;SDS011;54657;52.022;5.534;2023-04-08T10:36:51;9.52;;;7.88;;
65045;SDS011;54657;52.022;5.534;2023-04-08T10:39:19;13.32;;;8.50;;
65045;SDS011;54657;52.022;5.534;2023-04-08T10:41:46;11.25;;;8.32;;
65045;SDS011;54657;52.022;5.534;2023-04-08T10:46:44;10.63;;;8.68;;
65045;SDS011;54657;52.022;5.534;2023-04-08T10:49:15;10.25;;;8.38;;
65045;SDS011;54657;52.022;5.534;2023-04-08T10:51:41;9.30;;;8.23;;
65045;SDS011;54657;52.022;5.534;2023-04-08T10:54:14;12.10;;;8.20;;
65045;SDS011;54657;52.022;5.534;2023-04-08T10:56:45;9.25;;;8.25;;
65045;SDS011;54657;52.022;5.534;2023-04-08T10:59:13;12.55;;;7.57;;
65045;SDS011;54657;52.022;5.534;2023-04-08T11:01:43;10.00;;;7.50;;
65045;SDS011;54657;52.022;5.534;2023-04-08T11:04:11;11.40;;;7.88;;
65045;SDS011;54657;52.022;5.534;2023-04-08T11:06:43;10.52;;;7.22;;
65045;SDS011;54657;52.022;5.534;2023-04-08T11:09:10;11.38;;;7.22;;
65045;SDS011;54657;52.022;5.534;2023-04-08T11:11:41;7.93;;;6.65;;
65045;SDS011;54657;52.022;5.534;2023-04-08T11:14:08;10.45;;;7.68;;
65045;SDS011;54657;52.022;5.534;2023-04-08T11:16:47;8.68;;;6.55;;
65045;SDS011;54657;52.022;5.534;2023-04-08T11:19:13;8.15;;;6.75;;
65045;SDS011;54657;52.022;5.534;2023-04-08T11:21:39;10.15;;;7.43;;
65045;SDS011;54657;52.022;5.534;2023-04-08T11:24:06;7.85;;;6.70;;
65045;SDS011;54657;52.022;5.534;2023-04-08T11:26:36;8.55;;;7.18;;
65045;SDS011;54657;52.022;5.534;2023-04-08T11:29:05;8.88;;;7.45;;
65045;SDS011;54657;52.022;5.534;2023-04-08T11:31:36;8.68;;;7.15;;
65045;SDS011;54657;52.022;5.534;2023-04-08T11:34:02;8.20;;;7.35;;
65045;SDS011;54657;52.022;5.534;2023-04-08T11:36:28;9.15;;;7.55;;
65045;SDS011;54657;52.022;5.534;2023-04-08T11:38:59;10.38;;;7.75;;
65045;SDS011;54657;52.022;5.534;2023-04-08T11:41:24;9.90;;;8.18;;
65045;SDS011;54657;52.022;5.534;2023-04-08T11:44:00;8.70;;;7.70;;
65045;SDS011;54657;52.022;5.534;2023-04-08T11:46:26;9.93;;;8.05;;
65045;SDS011;54657;52.022;5.534;2023-04-08T11:49:10;9.13;;;7.85;;
65045;SDS011;54657;52.022;5.534;2023-04-08T11:51:57;9.77;;;7.45;;
65045;SDS011;54657;52.022;5.534;2023-04-08T11:54:29;10.73;;;6.82;;
65045;SDS011;54657;52.022;5.534;2023-04-08T11:56:56;9.75;;;8.02;;
65045;SDS011;54657;52.022;5.534;2023-04-08T11:59:26;8.52;;;7.65;;
65045;SDS011;54657;52.022;5.534;2023-04-08T12:01:51;10.77;;;7.78;;
65045;SDS011;54657;52.022;5.534;2023-04-08T12:04:17;8.55;;;7.22;;
65045;SDS011;54657;52.022;5.534;2023-04-08T12:06:43;8.68;;;7.55;;
65045;SDS011;54657;52.022;5.534;2023-04-08T12:09:11;8.90;;;7.28;;
65045;SDS011;54657;52.022;5.534;2023-04-08T12:11:37;9.10;;;7.55;;
65045;SDS011;54657;52.022;5.534;2023-04-08T12:14:02;10.35;;;7.25;;
65045;SDS011;54657;52.022;5.534;2023-04-08T12:16:28;11.95;;;7.72;;
65045;SDS011;54657;52.022;5.534;2023-04-08T12:18:54;8.80;;;7.40;;
65045;SDS011;54657;52.022;5.534;2023-04-08T12:21:20;9.85;;;7.53;;
65045;SDS011;54657;52.022;5.534;2023-04-08T12:23:45;10.88;;;7.55;;
65045;SDS011;54657;52.022;5.534;2023-04-08T12:26:11;10.88;;;7.43;;
65045;SDS011;54657;52.022;5.534;2023-04-08T12:28:37;9.82;;;7.32;;
65045;SDS011;54657;52.022;5.534;2023-04-08T12:31:03;7.95;;;6.97;;
65045;SDS011;54657;52.022;5.534;2023-04-08T12:33:29;10.13;;;7.93;;
65045;SDS011;54657;52.022;5.534;2023-04-08T12:35:55;9.52;;;7.88;;
65045;SDS011;54657;52.022;5.534;2023-04-08T12:38:23;11.32;;;6.95;;
65045;SDS011;54657;52.022;5.534;2023-04-08T12:40:49;8.68;;;6.90;;
65045;SDS011;54657;52.022;5.534;2023-04-08T12:43:15;7.97;;;6.93;;
65045;SDS011;54657;52.022;5.534;2023-04-08T12:45:40;10.10;;;6.97;;
65045;SDS011;54657;52.022;5.534;2023-04-08T12:48:06;9.68;;;6.57;;
65045;SDS011;54657;52.022;5.534;2023-04-08T12:50:35;12.05;;;7.35;;
65045;SDS011;54657;52.022;5.534;2023-04-08T12:53:06;9.18;;;7.03;;
65045;SDS011;54657;52.022;5.534;2023-04-08T12:55:37;9.02;;;6.60;;
65045;SDS011;54657;52.022;5.534;2023-04-08T12:58:03;8.07;;;6.35;;
65045;SDS011;54657;52.022;5.534;2023-04-08T13:00:30;8.07;;;6.60;;
65045;SDS011;54657;52.022;5.534;2023-04-08T13:02:55;10.25;;;6.65;;
65045;SDS011;54657;52.022;5.534;2023-04-08T13:05:21;8.50;;;6.60;;
65045;SDS011;54657;52.022;5.534;2023-04-08T13:07:46;8.27;;;6.00;;
65045;SDS011;54657;52.022;5.534;2023-04-08T13:10:12;10.15;;;6.95;;
65045;SDS011;54657;52.022;5.534;2023-04-08T13:12:37;7.93;;;6.63;;
65045;SDS011;54657;52.022;5.534;2023-04-08T13:15:04;9.77;;;6.22;;
65045;SDS011;54657;52.022;5.534;2023-04-08T13:17:30;10.70;;;6.72;;
65045;SDS011;54657;52.022;5.534;2023-04-08T13:19:56;8.07;;;6.10;;
65045;SDS011;54657;52.022;5.534;2023-04-08T13:22:22;8.63;;;6.32;;
65045;SDS011;54657;52.022;5.534;2023-04-08T13:24:47;7.30;;;6.22;;
65045;SDS011;54657;52.022;5.534;2023-04-08T13:27:13;8.27;;;6.40;;
65045;SDS011;54657;52.022;5.534;2023-04-08T13:29:39;7.90;;;6.68;;
65045;SDS011;54657;52.022;5.534;2023-04-08T13:32:05;7.43;;;6.53;;
65045;SDS011;54657;52.022;5.534;2023-04-08T13:34:30;7.10;;;5.68;;
65045;SDS011;54657;52.022;5.534;2023-04-08T13:36:56;7.93;;;6.57;;
65045;SDS011;54657;52.022;5.534;2023-04-08T13:39:21;8.52;;;6.32;;
65045;SDS011;54657;52.022;5.534;2023-04-08T13:41:47;8.38;;;7.13;;
65045;SDS011;54657;52.022;5.534;2023-04-08T13:44:13;12.80;;;7.03;;
65045;SDS011;54657;52.022;5.534;2023-04-08T13:46:39;7.32;;;6.57;;
65045;SDS011;54657;52.022;5.534;2023-04-08T13:49:05;7.75;;;6.93;;
65045;SDS011;54657;52.022;5.534;2023-04-08T13:51:30;7.75;;;6.90;;
65045;SDS011;54657;52.022;5.534;2023-04-08T13:53:56;8.18;;;6.78;;
65045;SDS011;54657;52.022;5.534;2023-04-08T13:56:21;7.55;;;6.60;;
65045;SDS011;54657;52.022;5.534;2023-04-08T13:58:47;8.50;;;6.68;;
65045;SDS011;54657;52.022;5.534;2023-04-08T14:01:12;7.18;;;6.03;;
65045;SDS011;54657;52.022;5.534;2023-04-08T14:03:38;7.40;;;6.47;;
65045;SDS011;54657;52.022;5.534;2023-04-08T14:06:04;7.05;;;6.32;;
65045;SDS011;54657;52.022;5.534;2023-04-08T14:08:29;7.40;;;6.40;;
65045;SDS011;54657;52.022;5.534;2023-04-08T14:10:55;7.38;;;6.47;;
65045;SDS011;54657;52.022;5.534;2023-04-08T14:13:23;8.68;;;6.28;;
65045;SDS011;54657;52.022;5.534;2023-04-08T14:15:49;7.82;;;6.57;;
65045;SDS011;54657;52.022;5.534;2023-04-08T14:18:17;7.60;;;5.75;;
65045;SDS011;54657;52.022;5.534;2023-04-08T14:20:43;6.85;;;6.20;;
65045;SDS011;54657;52.022;5.534;2023-04-08T14:23:08;7.18;;;6.45;;
65045;SDS011;54657;52.022;5.534;2023-04-08T14:25:34;6.97;;;6.20;;
65045;SDS011;54657;52.022;5.534;2023-04-08T14:28:00;7.43;;;5.85;;
65045;SDS011;54657;52.022;5.534;2023-04-08T14:30:26;6.95;;;6.25;;
65045;SDS011;54657;52.022;5.534;2023-04-08T14:32:52;8.90;;;6.38;;
65045;SDS011;54657;52.022;5.534;2023-04-08T14:35:18;6.68;;;6.07;;
65045;SDS011;54657;52.022;5.534;2023-04-08T14:37:43;6.65;;;5.97;;
65045;SDS011;54657;52.022;5.534;2023-04-08T14:40:09;7.13;;;6.00;;
65045;SDS011;54657;52.022;5.534;2023-04-08T14:42:38;7.05;;;6.13;;
65045;SDS011;54657;52.022;5.534;2023-04-08T14:45:06;6.72;;;5.95;;
65045;SDS011;54657;52.022;5.534;2023-04-08T14:47:41;6.90;;;6.20;;
65045;SDS011;54657;52.022;5.534;2023-04-08T14:50:20;7.05;;;6.13;;
65045;SDS011;54657;52.022;5.534;2023-04-08T14:52:46;8.25;;;6.30;;
65045;SDS011;54657;52.022;5.534;2023-04-08T14:55:16;7.00;;;6.30;;
65045;SDS011;54657;52.022;5.534;2023-04-08T14:58:22;8.40;;;6.28;;
65045;SDS011;54657;52.022;5.534;2023-04-08T15:03:48;10.57;;;7.90;;